Time;durP1;ratioP1;P1;durP2;ratioP2;P2;SDS_P1;SDS_P2;PMS_P1;PMS_P2;Temp;Humidity;BMP_temperature;BMP_pressure;BME280_temperature;BME280_humidity;BME280_pressure;Samples;Min_cycle;Max_cycle;Signal;HPM_P1;HPM_P2
2022/01/04 00:00:17;;;;;;;12.00;6.10;;;11.00;99.90;;;;;;5070041;28;20024;-64
2022/01/04 00:02:42;;;;;;;10.43;6.15;;;10.90;99.90;;;;;;5069199;28;20193;-63
2022/01/04 00:05:09;;;;;;;11.23;5.57;;;10.80;99.90;;;;;;5070849;28;20104;-63
2022/01/04 00:07:35;;;;;;;8.80;4.97;;;10.90;99.90;;;;;;5069904;28;20100;-63
2022/01/04 00:10:01;;;;;;;9.77;5.85;;;10.80;99.90;;;;;;5072689;28;20112;-63
2022/01/04 00:15:11;;;;;;;10.00;5.53;;;10.70;99.90;;;;;;5069020;28;20043;-63
2022/01/04 00:17:37;;;;;;;8.80;5.63;;;10.90;99.90;;;;;;5068241;28;20494;-64
2022/01/04 00:20:04;;;;;;;11.82;9.23;;;10.80;99.90;;;;;;5069209;28;20471;-63
2022/01/04 00:22:30;;;;;;;12.25;7.00;;;10.70;99.90;;;;;;5070209;28;20033;-63
2022/01/04 00:24:56;;;;;;;13.00;6.35;;;10.70;99.90;;;;;;5072097;28;20032;-64
2022/01/04 00:27:22;;;;;;;8.40;5.18;;;10.90;99.90;;;;;;5068927;28;20036;-63
2022/01/04 00:29:47;;;;;;;8.27;5.57;;;10.80;99.90;;;;;;5069101;28;20028;-64
2022/01/04 00:32:13;;;;;;;11.60;5.65;;;10.80;99.90;;;;;;5068645;28;20096;-63
2022/01/04 00:34:40;;;;;;;10.70;5.80;;;10.90;99.90;;;;;;5069034;28;20027;-64
2022/01/04 00:37:06;;;;;;;8.93;5.97;;;10.80;99.90;;;;;;5072289;28;20032;-63
2022/01/04 00:39:32;;;;;;;12.90;7.57;;;10.90;99.90;;;;;;5069055;28;20028;-64
2022/01/04 00:41:58;;;;;;;13.32;6.65;;;10.70;99.90;;;;;;5068802;28;20511;-64
2022/01/04 00:44:24;;;;;;;11.13;6.30;;;10.70;99.90;;;;;;5068764;28;20458;-63
2022/01/04 00:46:50;;;;;;;9.13;5.95;;;10.70;99.90;;;;;;5068831;28;20023;-63
2022/01/04 00:49:17;;;;;;;9.93;5.00;;;10.60;99.90;;;;;;5070922;28;20029;-64
2022/01/04 00:51:50;;;;;;;8.68;5.20;;;10.70;99.90;;;;;;5069869;28;20033;-63
2022/01/04 00:54:16;;;;;;;10.02;5.45;;;10.70;99.90;;;;;;5067953;28;20087;-63
2022/01/04 00:56:44;;;;;;;10.20;5.90;;;10.70;99.90;;;;;;5068267;28;20445;-63
2022/01/04 00:59:10;;;;;;;8.45;5.78;;;10.40;99.90;;;;;;5068161;28;20025;-64
2022/01/04 01:01:36;;;;;;;7.97;5.43;;;10.40;99.90;;;;;;5069115;28;20024;-63
2022/01/04 01:04:04;;;;;;;11.82;6.13;;;10.40;99.90;;;;;;5068102;28;20024;-63
2022/01/04 01:06:30;;;;;;;7.53;5.55;;;10.40;99.90;;;;;;5067666;28;20402;-64
2022/01/04 01:08:56;;;;;;;8.55;5.72;;;10.50;99.90;;;;;;5067857;28;20024;-64
2022/01/04 01:11:22;;;;;;;10.65;5.25;;;10.40;99.90;;;;;;5068334;28;20086;-63
2022/01/04 01:13:48;;;;;;;11.82;5.93;;;10.40;99.90;;;;;;5068288;28;20021;-63
2022/01/04 01:16:14;;;;;;;10.80;5.85;;;10.40;99.90;;;;;;5070674;28;20028;-64
2022/01/04 01:18:39;;;;;;;11.07;5.80;;;10.30;99.90;;;;;;5069621;28;20020;-64
2022/01/04 01:21:06;;;;;;;10.13;5.50;;;10.20;99.90;;;;;;5067954;28;20028;-64
2022/01/04 01:23:33;;;;;;;12.55;6.45;;;10.10;99.90;;;;;;5068945;28;20047;-63
2022/01/04 01:25:59;;;;;;;11.00;5.68;;;10.30;99.90;;;;;;5067996;28;20044;-64
2022/01/04 01:28:25;;;;;;;11.43;5.72;;;10.30;99.90;;;;;;5069455;28;20447;-64
2022/01/04 01:30:52;;;;;;;9.45;5.68;;;10.20;99.90;;;;;;5070529;28;20041;-64
2022/01/04 01:33:18;;;;;;;13.25;6.13;;;10.10;99.90;;;;;;5067934;28;20117;-63
2022/01/04 01:35:45;;;;;;;11.90;6.47;;;10.00;99.90;;;;;;5067470;28;20032;-63
2022/01/04 01:38:13;;;;;;;12.73;7.10;;;10.00;99.90;;;;;;5067383;28;20074;-63
2022/01/04 01:40:40;;;;;;;10.85;6.32;;;10.00;99.90;;;;;;5067888;28;20107;-63
2022/01/04 01:43:08;;;;;;;10.82;6.20;;;10.10;99.90;;;;;;5071693;28;20033;-65
2022/01/04 01:45:35;;;;;;;12.45;6.43;;;9.90;99.90;;;;;;5068577;28;20088;-64
2022/01/04 01:48:01;;;;;;;10.55;5.85;;;9.80;99.90;;;;;;5067532;28;20082;-63
2022/01/04 01:50:27;;;;;;;10.32;5.80;;;9.80;99.90;;;;;;5067480;28;20533;-64
2022/01/04 01:52:54;;;;;;;12.68;6.68;;;10.00;99.90;;;;;;5067593;28;20039;-63
2022/01/04 01:55:21;;;;;;;14.65;7.07;;;10.00;99.90;;;;;;5069907;28;20612;-63
2022/01/04 01:57:48;;;;;;;13.88;8.02;;;9.90;99.90;;;;;;5069731;28;20037;-62
2022/01/04 02:00:16;;;;;;;14.90;7.57;;;10.10;99.90;;;;;;5067759;28;20021;-64
2022/01/04 02:02:42;;;;;;;10.13;6.25;;;10.20;99.90;;;;;;5068871;28;20036;-64
2022/01/04 02:05:09;;;;;;;10.85;5.72;;;10.20;99.90;;;;;;5067606;28;20490;-63
2022/01/04 02:07:37;;;;;;;9.85;4.85;;;10.00;99.90;;;;;;5051656;28;20025;-64
2022/01/04 02:10:05;;;;;;;8.93;4.50;;;10.00;99.90;;;;;;5067545;28;20035;-63
2022/01/04 02:12:39;;;;;;;9.98;4.70;;;10.20;99.90;;;;;;5067280;28;20119;-63
2022/01/04 02:15:08;;;;;;;8.80;4.63;;;10.20;99.90;;;;;;5069156;28;20020;-63
2022/01/04 02:17:34;;;;;;;9.48;4.13;;;10.20;99.90;;;;;;5067197;28;20036;-63
2022/01/04 02:20:00;;;;;;;5.75;3.92;;;10.20;99.90;;;;;;5067457;28;20110;-63
2022/01/04 02:22:27;;;;;;;8.68;4.57;;;10.10;99.90;;;;;;5068913;28;20060;-63
2022/01/04 02:24:54;;;;;;;8.55;4.40;;;10.10;99.90;;;;;;5069998;28;20029;-63
2022/01/04 02:27:21;;;;;;;7.40;4.45;;;10.40;99.90;;;;;;5067504;28;20035;-63
2022/01/04 02:29:48;;;;;;;8.18;4.10;;;10.30;99.90;;;;;;5067018;28;20032;-63
2022/01/04 02:32:14;;;;;;;6.88;3.80;;;10.30;99.90;;;;;;5066989;28;20053;-63
2022/01/04 02:34:41;;;;;;;9.48;3.47;;;10.40;99.90;;;;;;5067145;28;20032;-63
2022/01/04 02:37:07;;;;;;;12.10;3.90;;;10.30;99.90;;;;;;5071247;28;20032;-64
2022/01/04 02:39:39;;;;;;;9.50;4.10;;;10.20;99.90;;;;;;5069945;28;20024;-63
2022/01/04 02:42:05;;;;;;;7.22;3.53;;;10.30;99.90;;;;;;5072275;28;20548;-63
2022/01/04 02:44:31;;;;;;;8.88;3.70;;;10.20;99.90;;;;;;5070971;28;20028;-63
2022/01/04 02:46:59;;;;;;;8.50;3.65;;;10.20;99.90;;;;;;5071347;28;20056;-63
2022/01/04 02:49:25;;;;;;;7.00;3.65;;;10.10;99.90;;;;;;5070775;28;20067;-63
2022/01/04 02:51:52;;;;;;;10.30;3.40;;;10.30;99.90;;;;;;5074775;28;20036;-63
2022/01/04 02:54:17;;;;;;;7.90;3.83;;;10.30;99.90;;;;;;5070405;28;20107;-63
2022/01/04 02:56:43;;;;;;;5.25;3.65;;;10.40;99.90;;;;;;5070766;28;20128;-63
2022/01/04 02:59:09;;;;;;;5.20;3.08;;;10.50;99.90;;;;;;5070824;28;20103;-64
2022/01/04 03:01:35;;;;;;;8.05;3.60;;;10.40;99.90;;;;;;5055058;28;20115;-63
2022/01/04 03:04:01;;;;;;;6.45;3.38;;;10.60;99.90;;;;;;5074085;28;20557;-63
2022/01/04 03:06:26;;;;;;;9.43;3.53;;;10.60;99.90;;;;;;5070348;28;20449;-63
2022/01/04 03:08:54;;;;;;;6.75;3.40;;;10.60;99.90;;;;;;5071992;28;20115;-63
2022/01/04 03:11:20;;;;;;;8.93;3.60;;;10.50;99.90;;;;;;5070476;28;20028;-63
2022/01/04 03:13:45;;;;;;;7.65;4.72;;;10.70;99.90;;;;;;5070312;28;20021;-63
2022/01/04 03:16:11;;;;;;;8.75;3.88;;;10.60;99.90;;;;;;5073560;28;20505;-63
2022/01/04 03:18:49;;;;;;;8.38;3.53;;;10.60;99.90;;;;;;5071116;28;20078;-63
2022/01/04 03:21:15;;;;;;;6.60;2.78;;;10.70;99.90;;;;;;5071381;28;20483;-63
2022/01/04 03:23:40;;;;;;;5.65;3.00;;;10.80;99.90;;;;;;5070161;28;20029;-63
2022/01/04 03:26:06;;;;;;;11.95;3.25;;;10.90;99.90;;;;;;5070314;28;20119;-63
2022/01/04 03:28:32;;;;;;;7.50;3.67;;;10.60;99.90;;;;;;5071030;28;20056;-63
2022/01/04 03:30:58;;;;;;;7.57;4.53;;;10.70;99.90;;;;;;5073679;28;20364;-63
2022/01/04 03:33:23;;;;;;;10.57;4.43;;;10.80;99.90;;;;;;5069137;28;20072;-63
2022/01/04 03:35:49;;;;;;;8.98;3.88;;;10.70;99.90;;;;;;5069922;28;20032;-63
2022/01/04 03:38:15;;;;;;;12.00;4.10;;;10.70;99.90;;;;;;5070041;28;20078;-63
2022/01/04 03:40:40;;;;;;;7.32;2.70;;;10.80;99.90;;;;;;5069810;28;20037;-63
2022/01/04 03:43:06;;;;;;;11.35;2.80;;;11.10;99.90;;;;;;5073950;28;20067;-63
2022/01/04 03:45:32;;;;;;;7.35;2.97;;;11.00;99.90;;;;;;5070269;28;20032;-63
2022/01/04 03:47:57;;;;;;;8.45;3.17;;;11.00;99.90;;;;;;5069492;28;20024;-63
2022/01/04 03:50:23;;;;;;;7.60;2.70;;;10.90;99.90;;;;;;5069287;28;20038;-63
2022/01/04 03:52:49;;;;;;;9.30;3.33;;;10.80;99.90;;;;;;5067718;28;20031;-63
2022/01/04 03:55:15;;;;;;;9.38;3.33;;;11.00;99.90;;;;;;5071984;28;20021;-63
2022/01/04 03:57:40;;;;;;;6.80;2.78;;;11.10;99.90;;;;;;5071284;28;20059;-63
2022/01/04 04:00:08;;;;;;;9.10;3.10;;;11.20;99.90;;;;;;5071003;28;20073;-63
2022/01/04 04:02:33;;;;;;;6.53;2.28;;;11.10;99.90;;;;;;5069068;28;20029;-63
2022/01/04 04:04:59;;;;;;;6.78;2.42;;;11.30;99.90;;;;;;5069566;28;20119;-63
2022/01/04 04:07:25;;;;;;;10.45;2.92;;;11.30;99.90;;;;;;5071130;28;20036;-63
2022/01/04 04:09:50;;;;;;;7.95;3.00;;;11.20;99.90;;;;;;5072142;28;20521;-63
2022/01/04 04:12:16;;;;;;;6.18;2.97;;;11.10;99.90;;;;;;5068885;28;20047;-63
2022/01/04 04:14:43;;;;;;;9.45;2.92;;;10.80;99.90;;;;;;5071574;28;20028;-63
2022/01/04 04:17:09;;;;;;;7.78;3.20;;;11.00;99.90;;;;;;5069318;28;20016;-62
2022/01/04 04:19:34;;;;;;;7.20;3.08;;;11.00;99.90;;;;;;5069650;28;20047;-64
2022/01/04 04:22:00;;;;;;;8.85;2.95;;;11.00;99.90;;;;;;5072906;28;20438;-63
2022/01/04 04:24:25;;;;;;;13.05;3.13;;;11.10;99.90;;;;;;5068920;28;20028;-63
2022/01/04 04:26:51;;;;;;;8.45;3.30;;;11.20;99.90;;;;;;5069279;28;20037;-63
2022/01/04 04:29:17;;;;;;;10.68;3.20;;;11.20;99.90;;;;;;5069104;28;20028;-63
2022/01/04 04:31:42;;;;;;;8.55;3.15;;;11.10;99.90;;;;;;5068773;28;20376;-63
2022/01/04 04:34:08;;;;;;;9.13;3.33;;;11.10;99.90;;;;;;5072120;28;20131;-63
2022/01/04 04:36:34;;;;;;;6.10;2.50;;;11.20;99.90;;;;;;5069804;28;20371;-62
2022/01/04 04:39:00;;;;;;;10.85;3.15;;;11.10;99.90;;;;;;5070217;28;20027;-63
2022/01/04 04:41:26;;;;;;;15.93;3.20;;;11.10;99.90;;;;;;5068599;28;20091;-63
2022/01/04 04:43:54;;;;;;;11.57;2.80;;;11.10;99.90;;;;;;5069821;28;20104;-63
2022/01/04 04:46:21;;;;;;;9.88;2.88;;;11.10;99.90;;;;;;5069730;28;20515;-63
2022/01/04 04:48:46;;;;;;;9.93;3.00;;;11.00;99.90;;;;;;5070452;28;20039;-62
2022/01/04 04:51:12;;;;;;;8.90;3.58;;;10.90;99.90;;;;;;5068530;28;20025;-63
2022/01/04 04:53:38;;;;;;;8.63;2.88;;;11.00;99.90;;;;;;5068437;28;20020;-63
2022/01/04 04:56:04;;;;;;;10.25;2.83;;;11.00;99.90;;;;;;5068429;28;20016;-63
2022/01/04 04:58:31;;;;;;;8.90;2.60;;;11.00;99.90;;;;;;5069487;28;20529;-63
2022/01/04 05:00:56;;;;;;;8.65;3.08;;;11.00;99.90;;;;;;5071317;28;20020;-63
2022/01/04 05:03:22;;;;;;;10.23;2.53;;;10.80;99.90;;;;;;5068196;28;20047;-64
2022/01/04 05:05:48;;;;;;;10.85;3.08;;;10.80;99.90;;;;;;5068183;28;20399;-63
2022/01/04 05:08:13;;;;;;;7.85;3.45;;;10.70;99.90;;;;;;5069794;28;20444;-63
2022/01/04 05:10:42;;;;;;;11.70;3.35;;;10.70;99.90;;;;;;5068398;28;20024;-63
2022/01/04 05:13:07;;;;;;;8.13;2.90;;;10.80;99.90;;;;;;5071475;28;20048;-63
2022/01/04 05:15:33;;;;;;;8.88;2.85;;;10.70;99.90;;;;;;5069992;28;20033;-63
2022/01/04 05:17:59;;;;;;;8.68;2.50;;;10.50;99.90;;;;;;5069449;28;20025;-62
2022/01/04 05:20:24;;;;;;;9.60;2.60;;;10.50;99.90;;;;;;5067963;28;20406;-63
2022/01/04 05:22:50;;;;;;;11.13;2.60;;;10.50;99.90;;;;;;5068526;28;20154;-63
2022/01/04 05:25:16;;;;;;;7.30;2.95;;;10.40;99.90;;;;;;5070260;28;20391;-63
2022/01/04 05:27:41;;;;;;;7.03;2.92;;;10.40;99.90;;;;;;5069721;28;20025;-63
2022/01/04 05:30:08;;;;;;;7.43;2.83;;;10.30;99.90;;;;;;5067676;28;20039;-63
2022/01/04 05:32:33;;;;;;;8.02;3.00;;;10.30;99.90;;;;;;5067482;28;20514;-63
2022/01/04 05:34:59;;;;;;;10.48;3.13;;;10.40;99.90;;;;;;5068230;28;20109;-63
2022/01/04 05:37:25;;;;;;;7.50;2.92;;;10.40;99.90;;;;;;5069736;28;20054;-63
2022/01/04 05:39:50;;;;;;;10.05;3.25;;;10.40;99.90;;;;;;5070017;28;20052;-63
2022/01/04 05:42:16;;;;;;;10.63;2.90;;;10.40;99.90;;;;;;5067793;28;20024;-63
2022/01/04 05:44:42;;;;;;;9.88;3.40;;;10.30;99.90;;;;;;5067328;28;20602;-63
2022/01/04 05:47:08;;;;;;;11.18;3.33;;;10.30;99.90;;;;;;5068166;28;20052;-62
2022/01/04 05:49:34;;;;;;;9.95;3.17;;;10.30;99.90;;;;;;5068389;28;20182;-63
2022/01/04 05:51:59;;;;;;;12.90;3.03;;;10.10;99.90;;;;;;5071199;28;20032;-61
2022/01/04 05:54:25;;;;;;;10.25;2.90;;;10.10;99.90;;;;;;5067465;28;20020;-63
2022/01/04 05:56:51;;;;;;;10.75;3.20;;;10.20;99.90;;;;;;5068993;28;20025;-62
2022/01/04 05:59:16;;;;;;;14.18;3.15;;;10.10;99.90;;;;;;5067172;28;20396;-63
2022/01/04 06:01:42;;;;;;;8.25;3.10;;;10.10;99.90;;;;;;5067908;28;20037;-63
2022/01/04 06:04:10;;;;;;;10.52;3.08;;;10.30;99.90;;;;;;5071006;28;20399;-63
2022/01/04 06:06:36;;;;;;;12.75;3.10;;;10.30;99.90;;;;;;5068409;28;20086;-63
2022/01/04 06:09:02;;;;;;;9.93;2.90;;;10.30;99.90;;;;;;5066951;28;20024;-63
2022/01/04 06:16:52;;;;;;;12.82;3.28;;;10.60;99.90;;;;;;5058064;28;20028;-63
2022/01/04 06:19:18;;;;;;;12.60;2.90;;;10.60;99.90;;;;;;5072946;28;20032;-62
2022/01/04 06:21:43;;;;;;;10.32;2.78;;;10.60;99.90;;;;;;5073126;28;20055;-62
2022/01/04 06:24:10;;;;;;;12.57;2.90;;;10.70;99.90;;;;;;5071363;28;20392;-63
2022/01/04 06:26:35;;;;;;;12.55;3.10;;;10.80;99.90;;;;;;5071029;28;20040;-62
2022/01/04 06:29:02;;;;;;;8.20;3.03;;;11.00;99.90;;;;;;5070326;28;20016;-63
2022/01/04 06:31:29;;;;;;;12.20;2.60;;;10.90;99.90;;;;;;5072418;28;20122;-63
2022/01/04 06:33:55;;;;;;;11.13;3.08;;;11.20;99.90;;;;;;5073917;28;20053;-63
2022/01/04 06:36:21;;;;;;;10.00;3.13;;;11.30;99.90;;;;;;5072651;28;20097;-63
2022/01/04 06:38:47;;;;;;;12.65;3.17;;;11.40;99.90;;;;;;5071001;28;20487;-63
2022/01/04 06:41:13;;;;;;;10.82;2.58;;;11.60;99.90;;;;;;5071073;28;20028;-63
2022/01/04 06:43:38;;;;;;;10.13;2.85;;;11.70;99.90;;;;;;5070867;28;20029;-63
2022/01/04 06:46:04;;;;;;;9.77;2.58;;;11.70;99.90;;;;;;5075396;28;20123;-63
2022/01/04 06:48:29;;;;;;;9.35;2.65;;;11.80;99.90;;;;;;5069459;28;20063;-63
2022/01/04 06:50:57;;;;;;;12.05;2.45;;;11.90;99.90;;;;;;5072641;28;20062;-63
2022/01/04 06:53:22;;;;;;;11.18;2.45;;;12.00;99.90;;;;;;5071006;28;20418;-62
2022/01/04 06:55:50;;;;;;;8.15;2.63;;;12.00;99.90;;;;;;5070520;28;20024;-62
2022/01/04 06:58:16;;;;;;;14.90;3.22;;;12.10;99.90;;;;;;5073276;28;20028;-63
2022/01/04 07:00:42;;;;;;;11.38;2.70;;;12.00;99.90;;;;;;5072395;28;20036;-63
2022/01/04 07:03:08;;;;;;;12.02;2.65;;;11.90;99.90;;;;;;5071151;28;20028;-63
2022/01/04 07:05:35;;;;;;;12.73;3.00;;;11.80;99.90;;;;;;5070712;28;20553;-62
2022/01/04 07:08:01;;;;;;;9.43;2.33;;;11.70;99.90;;;;;;5070619;28;20033;-62
2022/01/04 07:10:27;;;;;;;7.25;3.03;;;11.60;99.90;;;;;;5071217;28;20028;-62
2022/01/04 07:12:53;;;;;;;9.93;3.30;;;11.40;99.90;;;;;;5073138;28;20044;-62
2022/01/04 07:15:19;;;;;;;30.35;17.85;;;11.30;99.90;;;;;;5071910;28;20025;-62
2022/01/04 07:17:45;;;;;;;13.68;7.80;;;11.20;99.90;;;;;;5070461;28;20043;-63
2022/01/04 07:20:11;;;;;;;13.75;4.90;;;11.10;99.90;;;;;;5070633;28;20029;-63
2022/01/04 07:22:37;;;;;;;14.55;6.55;;;11.10;99.90;;;;;;5070731;28;20487;-63
2022/01/04 07:25:06;;;;;;;18.40;5.90;;;10.90;99.90;;;;;;5073468;28;20109;-62
2022/01/04 07:27:32;;;;;;;17.60;9.18;;;10.70;99.90;;;;;;5070879;28;20421;-63
2022/01/04 07:29:58;;;;;;;15.35;8.13;;;10.50;99.90;;;;;;5070229;28;20031;-63
2022/01/04 07:32:24;;;;;;;10.35;4.10;;;10.10;99.90;;;;;;5070068;28;20507;-63
2022/01/04 07:34:50;;;;;;;15.30;5.45;;;9.90;99.90;;;;;;5069892;28;20107;-63
2022/01/04 07:37:16;;;;;;;19.15;5.30;;;9.70;99.90;;;;;;5072540;28;20029;-63
2022/01/04 07:39:42;;;;;;;11.68;4.55;;;9.80;99.90;;;;;;5071059;28;20024;-62
2022/01/04 07:42:08;;;;;;;14.55;6.13;;;9.80;99.90;;;;;;5069917;28;20438;-62
2022/01/04 07:44:34;;;;;;;24.33;16.67;;;9.80;99.90;;;;;;5069913;28;20435;-63
2022/01/04 07:47:00;;;;;;;14.40;5.97;;;9.90;99.90;;;;;;5069979;28;20025;-63
2022/01/04 07:49:26;;;;;;;14.90;4.80;;;10.10;99.90;;;;;;5071655;28;20384;-64
2022/01/04 07:51:52;;;;;;;13.63;5.00;;;10.50;99.90;;;;;;5071989;28;20094;-62
2022/01/04 07:54:18;;;;;;;18.25;4.65;;;10.90;99.90;;;;;;5070453;28;20356;-63
2022/01/04 07:56:44;;;;;;;18.90;4.68;;;11.20;99.90;;;;;;5069416;28;20082;-63
2022/01/04 07:59:10;;;;;;;19.25;4.50;;;11.40;99.90;;;;;;5069616;28;20020;-63
2022/01/04 08:01:36;;;;;;;22.42;4.93;;;11.50;99.90;;;;;;5054025;28;20048;-62
2022/01/04 08:04:04;;;;;;;16.15;4.40;;;11.60;99.90;;;;;;5073563;28;20059;-63
2022/01/04 08:06:29;;;;;;;16.67;4.35;;;11.70;99.90;;;;;;5069029;28;20033;-63
2022/01/04 08:08:55;;;;;;;23.33;5.22;;;11.70;99.90;;;;;;5069129;28;20498;-63
2022/01/04 08:11:21;;;;;;;24.73;5.47;;;11.90;99.90;;;;;;5069283;28;20623;-63
2022/01/04 08:13:47;;;;;;;23.17;5.10;;;12.20;99.90;;;;;;5069290;28;20564;-64
2022/01/04 08:16:17;;;;;;;24.17;5.43;;;12.40;99.90;;;;;;5071723;28;20032;-63
2022/01/04 08:18:43;;;;;;;25.83;5.13;;;12.50;99.90;;;;;;5072142;28;20055;-63
2022/01/04 08:21:09;;;;;;;23.13;4.65;;;12.50;99.90;;;;;;5068862;28;20037;-63
2022/01/04 08:23:35;;;;;;;24.05;5.53;;;12.60;99.90;;;;;;5068628;28;20040;-63
2022/01/04 08:26:01;;;;;;;23.80;5.30;;;12.60;99.90;;;;;;5067854;28;20039;-63
2022/01/04 08:28:26;;;;;;;20.88;4.63;;;12.80;99.90;;;;;;5070316;28;20078;-63
2022/01/04 08:30:52;;;;;;;31.63;5.97;;;12.80;99.90;;;;;;5071255;28;20402;-62
2022/01/04 08:33:18;;;;;;;25.83;5.55;;;12.80;99.90;;;;;;5070022;28;20604;-63
2022/01/04 08:35:44;;;;;;;27.52;5.65;;;12.90;99.90;;;;;;5068611;28;20021;-63
2022/01/04 08:38:10;;;;;;;26.58;5.10;;;12.90;99.90;;;;;;5069288;28;20031;-63
2022/01/04 08:40:36;;;;;;;22.20;5.18;;;13.10;99.90;;;;;;5053427;28;20021;-63
2022/01/04 08:43:02;;;;;;;26.25;4.75;;;13.20;99.90;;;;;;5071412;28;20032;-63
2022/01/04 08:45:28;;;;;;;21.23;4.93;;;13.10;99.90;;;;;;5068361;28;20072;-63
2022/01/04 08:47:54;;;;;;;23.02;5.13;;;13.20;99.90;;;;;;5068054;28;20048;-63
2022/01/04 08:50:21;;;;;;;25.20;5.63;;;13.30;99.90;;;;;;5067738;28;20114;-63
2022/01/04 08:52:51;;;;;;;26.48;5.18;;;13.30;99.90;;;;;;5066515;28;20029;-63
2022/01/04 08:55:17;;;;;;;20.48;5.15;;;13.50;99.90;;;;;;5070478;28;20032;-62
2022/01/04 08:57:43;;;;;;;23.30;4.93;;;13.80;99.90;;;;;;5070473;28;20028;-63
2022/01/04 09:00:10;;;;;;;20.00;4.85;;;13.90;99.90;;;;;;5068504;28;20028;-63
2022/01/04 09:02:36;;;;;;;19.80;4.75;;;13.90;99.90;;;;;;5068460;28;20111;-62
2022/01/04 09:05:03;;;;;;;22.25;4.82;;;14.10;99.90;;;;;;5068521;28;20031;-63
2022/01/04 09:07:29;;;;;;;24.77;5.20;;;14.60;99.90;;;;;;5069252;28;20538;-63
2022/01/04 09:09:55;;;;;;;24.50;4.63;;;15.20;99.90;;;;;;5071045;28;20021;-63
2022/01/04 09:12:25;;;;;;;20.98;4.85;;;15.30;99.90;;;;;;5069737;28;20040;-63
2022/01/04 09:20:07;;;;;;;20.65;5.35;;;15.30;99.90;;;;;;5068294;28;20153;-62
2022/01/04 09:22:33;;;;;;;19.17;5.53;;;15.60;99.90;;;;;;5068405;28;20024;-62
2022/01/04 09:24:58;;;;;;;23.70;5.07;;;15.90;99.90;;;;;;5071227;28;20028;-63
2022/01/04 09:27:24;;;;;;;18.73;5.25;;;16.20;99.90;;;;;;5067822;28;20074;-63
2022/01/04 09:29:50;;;;;;;20.17;5.22;;;16.20;99.90;;;;;;5068175;28;20028;-63
2022/01/04 09:32:17;;;;;;;24.58;5.32;;;16.70;99.90;;;;;;5067512;28;20058;-64
2022/01/04 09:34:46;;;;;;;27.77;5.82;;;17.10;99.90;;;;;;5067813;28;20030;-63
2022/01/04 09:37:13;;;;;;;21.38;4.75;;;17.40;99.90;;;;;;5070619;28;20518;-63
2022/01/04 09:39:39;;;;;;;18.02;5.10;;;18.50;99.90;;;;;;5068542;28;20070;-63
2022/01/04 09:42:07;;;;;;;18.13;4.95;;;18.80;99.90;;;;;;5068184;28;20395;-62
2022/01/04 09:44:34;;;;;;;21.48;4.78;;;18.50;99.90;;;;;;5067432;28;20039;-63
2022/01/04 09:47:02;;;;;;;18.52;3.97;;;18.30;99.90;;;;;;5067838;28;20094;-63
2022/01/04 09:49:29;;;;;;;18.02;4.95;;;18.60;99.90;;;;;;5068971;28;20032;-63
2022/01/04 09:51:56;;;;;;;16.05;4.38;;;19.10;99.90;;;;;;5071560;28;20043;-62
2022/01/04 09:54:26;;;;;;;20.00;4.63;;;19.00;99.90;;;;;;5067533;28;20025;-63
2022/01/04 09:56:53;;;;;;;17.52;3.92;;;18.80;99.90;;;;;;5067403;28;20028;-62
2022/01/04 09:59:19;;;;;;;17.92;4.45;;;19.10;99.90;;;;;;5067889;28;20032;-63
2022/01/04 10:01:50;;;;;;;19.30;4.40;;;18.60;99.90;;;;;;5067243;28;20029;-62
2022/01/04 10:04:16;;;;;;;21.15;4.50;;;18.70;99.90;;;;;;5069295;28;20505;-63
2022/01/04 10:06:57;;;;;;;20.48;4.13;;;18.70;99.90;;;;;;5070225;28;20037;-62
2022/01/04 10:09:52;;;;;;;17.65;5.22;;;18.10;99.90;;;;;;5067216;28;20025;-61
2022/01/04 10:12:21;;;;;;;19.42;4.25;;;18.10;99.90;;;;;;5067271;28;20036;-62
2022/01/04 10:14:51;;;;;;;20.70;4.38;;;17.90;99.90;;;;;;5067303;28;20027;-62
2022/01/04 10:17:23;;;;;;;14.63;3.90;;;17.90;99.90;;;;;;5067229;28;20441;-63
2022/01/04 10:19:54;;;;;;;20.88;4.10;;;17.90;99.90;;;;;;5067640;28;20021;-66
2022/01/04 10:22:25;;;;;;;20.55;4.38;;;18.00;99.90;;;;;;5069861;28;20121;-62
2022/01/04 10:25:09;;;;;;;17.48;4.30;;;17.60;99.90;;;;;;5069822;28;20034;-62
2022/01/04 10:27:44;;;;;;;16.92;4.75;;;17.20;99.90;;;;;;5069770;28;20025;-62
2022/01/04 10:30:30;;;;;;;17.08;4.32;;;17.10;99.90;;;;;;5068518;28;20029;-63
2022/01/04 10:32:58;;;;;;;18.70;4.95;;;17.00;99.90;;;;;;5067056;28;20056;-63
2022/01/04 10:35:39;;;;;;;17.80;4.90;;;16.90;99.90;;;;;;5067224;28;20028;-63
2022/01/04 10:38:13;;;;;;;19.55;4.63;;;17.20;99.90;;;;;;5067271;28;20067;-63
2022/01/04 10:40:40;;;;;;;18.05;5.00;;;17.20;99.90;;;;;;5051232;28;20483;-62
2022/01/04 10:43:10;;;;;;;17.25;4.63;;;17.60;99.90;;;;;;5067157;28;20025;-63
2022/01/04 10:45:38;;;;;;;19.63;5.30;;;17.30;99.90;;;;;;5067494;28;20512;-62
2022/01/04 10:48:15;;;;;;;22.88;5.13;;;17.10;99.90;;;;;;5066111;28;20021;-62
2022/01/04 10:50:43;;;;;;;27.63;5.22;;;16.60;99.90;;;;;;5067537;28;20036;-63
2022/01/04 10:53:36;;;;;;;17.67;4.68;;;16.40;99.90;;;;;;5066051;28;20033;-62
2022/01/04 10:56:05;;;;;;;18.33;4.43;;;16.20;99.90;;;;;;5052503;28;20048;-63
2022/01/04 10:58:48;;;;;;;18.83;5.30;;;15.90;99.90;;;;;;5067409;28;20388;-62
2022/01/04 11:01:19;;;;;;;17.58;4.55;;;15.70;99.90;;;;;;5068714;28;20021;-62
2022/01/04 11:03:47;;;;;;;19.92;4.82;;;15.60;99.90;;;;;;5073713;28;20037;-62
2022/01/04 11:06:23;;;;;;;22.15;5.05;;;15.40;99.90;;;;;;5070437;28;20013;-62
2022/01/04 11:08:49;;;;;;;16.88;4.68;;;15.50;99.90;;;;;;5071891;28;20035;-62
2022/01/04 11:11:15;;;;;;;21.50;5.10;;;15.40;99.90;;;;;;5070327;28;20028;-62
2022/01/04 11:13:41;;;;;;;24.33;4.88;;;15.30;99.90;;;;;;5070556;28;20037;-62
2022/01/04 11:16:07;;;;;;;20.88;4.65;;;15.30;99.90;;;;;;5074259;28;20031;-61
2022/01/04 11:18:34;;;;;;;17.45;4.28;;;15.20;99.90;;;;;;5071433;28;20035;-60
2022/01/04 11:21:00;;;;;;;21.83;4.85;;;15.10;99.90;;;;;;5070439;28;20501;-60
2022/01/04 11:23:31;;;;;;;19.10;4.05;;;15.30;99.90;;;;;;5070609;28;20024;-62
2022/01/04 11:25:58;;;;;;;15.57;3.80;;;15.40;99.90;;;;;;5070200;28;20024;-61
2022/01/04 11:28:26;;;;;;;17.40;3.45;;;15.40;99.90;;;;;;5072248;28;20453;-61
2022/01/04 11:31:24;;;;;;;14.50;3.38;;;15.70;99.90;;;;;;5072665;28;20051;-61
2022/01/04 11:34:06;;;;;;;13.15;3.35;;;16.30;99.90;;;;;;5071967;28;20595;-61
2022/01/04 11:36:37;;;;;;;13.88;3.30;;;16.70;99.90;;;;;;5070061;28;20039;-60
2022/01/04 11:39:28;;;;;;;32.25;18.42;;;16.50;99.90;;;;;;5070237;28;20024;-61
2022/01/04 11:41:55;;;;;;;27.15;17.10;;;16.80;99.90;;;;;;5070006;28;20518;-61
2022/01/04 11:44:28;;;;;;;18.45;7.65;;;16.30;99.90;;;;;;5069629;28;20430;-61
2022/01/04 11:47:07;;;;;;;36.63;25.67;;;16.60;99.90;;;;;;5071318;28;20034;-62
2022/01/04 11:49:36;;;;;;;12.38;7.00;;;16.60;99.90;;;;;;5070852;28;20154;-61
2022/01/04 11:52:04;;;;;;;18.38;5.93;;;16.30;99.90;;;;;;5073855;28;20041;-61
2022/01/04 11:54:31;;;;;;;10.80;2.90;;;15.70;99.90;;;;;;5069399;28;20024;-62
2022/01/04 11:57:15;;;;;;;18.42;6.53;;;16.00;99.90;;;;;;5069278;28;20036;-61
2022/01/04 11:59:47;;;;;;;16.58;9.00;;;16.10;99.90;;;;;;5069347;28;20028;-62
2022/01/04 12:02:28;;;;;;;17.20;6.95;;;15.30;99.90;;;;;;5069635;28;20521;-60
2022/01/04 12:04:58;;;;;;;16.73;8.60;;;15.40;99.90;;;;;;5069574;28;20025;-61
2022/01/04 12:07:39;;;;;;;11.90;3.15;;;15.50;99.90;;;;;;5071594;28;20029;-62
2022/01/04 12:10:32;;;;;;;31.10;21.33;;;15.10;99.90;;;;;;5069057;28;20089;-62
2022/01/04 12:13:16;;;;;;;9.05;6.25;;;15.00;99.90;;;;;;5069596;28;20127;-62
2022/01/04 12:15:47;;;;;;;11.02;5.20;;;14.80;99.90;;;;;;5071720;28;20052;-63
2022/01/04 12:18:31;;;;;;;7.88;2.30;;;14.60;99.90;;;;;;5069732;28;20245;-63
2022/01/04 12:21:00;;;;;;;8.85;2.58;;;14.60;99.90;;;;;;5068915;28;20490;-63
2022/01/04 12:23:37;;;;;;;11.50;3.22;;;15.10;99.90;;;;;;5068953;28;20024;-63
2022/01/04 12:26:08;;;;;;;13.13;2.42;;;15.60;99.90;;;;;;5070791;28;20518;-62
2022/01/04 12:28:44;;;;;;;9.23;1.92;;;14.70;99.90;;;;;;5069553;28;20096;-61
2022/01/04 12:31:13;;;;;;;7.57;2.22;;;14.70;99.90;;;;;;5068618;28;20029;-62
2022/01/04 12:33:50;;;;;;;10.32;2.20;;;14.30;99.90;;;;;;5070239;28;20048;-62
2022/01/04 12:36:25;;;;;;;10.15;3.15;;;14.60;99.90;;;;;;5068830;28;20028;-61
2022/01/04 12:38:53;;;;;;;11.07;2.22;;;14.60;99.90;;;;;;5068548;28;20032;-61
2022/01/04 12:41:19;;;;;;;15.13;2.30;;;14.50;99.90;;;;;;5068280;28;20029;-61
2022/01/04 12:43:49;;;;;;;11.23;2.20;;;14.30;99.90;;;;;;5069779;28;20111;-61
2022/01/04 12:46:28;;;;;;;6.60;2.10;;;14.30;99.90;;;;;;5071017;28;20073;-61
2022/01/04 12:48:56;;;;;;;9.25;4.32;;;14.40;99.90;;;;;;5071498;28;20033;-61
2022/01/04 12:51:36;;;;;;;6.50;1.90;;;14.10;99.90;;;;;;5068445;28;20032;-61
2022/01/04 12:54:07;;;;;;;8.68;1.90;;;14.60;99.90;;;;;;5068510;28;20119;-62
2022/01/04 12:56:43;;;;;;;8.40;1.50;;;14.80;99.90;;;;;;5068399;28;20043;-61